Time;durP1;ratioP1;P1;durP2;ratioP2;P2;SDS_P1;SDS_P2;PMS_P1;PMS_P2;Temp;Humidity;BMP_temperature;BMP_pressure;BME280_temperature;BME280_humidity;BME280_pressure;Samples;Min_cycle;Max_cycle;Signal;HPM_P1;HPM_P2
2022/05/10 00:00:37;;;;;;;10.60;4.67;;;9.00;81.40;;;;;;5031141;28;20612;-72
2022/05/10 00:03:06;;;;;;;9.03;4.60;;;9.00;81.20;;;;;;5031184;28;20310;-72
2022/05/10 00:05:39;;;;;;;8.90;4.43;;;9.00;82.40;;;;;;5030958;28;20203;-71
2022/05/10 00:08:09;;;;;;;14.50;5.03;;;9.00;82.30;;;;;;5032528;28;20525;-71
2022/05/10 00:10:36;;;;;;;8.97;4.43;;;9.00;83.00;;;;;;5032431;28;20215;-72
2022/05/10 00:13:05;;;;;;;10.50;4.90;;;9.00;83.00;;;;;;5031291;28;20286;-72
2022/05/10 00:15:33;;;;;;;10.43;4.67;;;9.00;83.10;;;;;;5036056;28;20602;-72
2022/05/10 00:18:00;;;;;;;8.77;4.77;;;8.90;82.60;;;;;;5035205;28;20208;-72
2022/05/10 00:20:27;;;;;;;9.50;4.50;;;8.90;84.10;;;;;;5035178;28;20198;-72
2022/05/10 00:22:54;;;;;;;11.77;4.93;;;8.90;84.50;;;;;;5035036;28;20723;-72
2022/05/10 00:25:26;;;;;;;9.03;4.73;;;8.90;83.90;;;;;;5034904;28;20210;-72
2022/05/10 00:27:53;;;;;;;9.50;4.60;;;8.90;82.80;;;;;;5034894;28;20282;-72
2022/05/10 00:30:20;;;;;;;11.23;4.83;;;8.90;83.60;;;;;;5035115;28;20238;-72
2022/05/10 00:32:47;;;;;;;9.27;4.50;;;8.80;83.80;;;;;;5034549;28;20239;-72
2022/05/10 00:35:21;;;;;;;9.63;5.47;;;8.70;84.90;;;;;;5034735;28;20286;-72
2022/05/10 00:37:49;;;;;;;9.63;4.63;;;8.60;85.80;;;;;;5035000;28;20552;-72
2022/05/10 00:40:20;;;;;;;11.37;4.73;;;8.60;85.70;;;;;;5035619;28;20215;-72
2022/05/10 00:42:57;;;;;;;10.83;4.73;;;8.60;84.80;;;;;;5034924;28;20207;-72
2022/05/10 00:45:39;;;;;;;9.70;5.00;;;8.50;85.90;;;;;;5034474;28;20610;-72
2022/05/10 00:48:30;;;;;;;10.27;5.07;;;8.50;86.40;;;;;;5035506;28;20223;-72
2022/05/10 00:51:12;;;;;;;14.13;5.13;;;8.40;86.00;;;;;;5034153;28;20297;-72
2022/05/10 00:53:58;;;;;;;11.60;5.03;;;8.40;86.40;;;;;;5034356;28;20278;-72
2022/05/10 00:56:44;;;;;;;8.70;4.63;;;8.50;87.40;;;;;;5035382;28;20534;-72
2022/05/10 00:59:34;;;;;;;11.73;5.13;;;8.50;87.40;;;;;;5035527;28;20232;-71
2022/05/10 01:02:15;;;;;;;12.57;5.30;;;8.50;86.90;;;;;;5033831;28;20270;-72
2022/05/10 01:04:55;;;;;;;9.63;4.90;;;8.40;86.00;;;;;;5034513;28;20250;-72
2022/05/10 01:07:34;;;;;;;11.77;5.60;;;8.40;86.90;;;;;;5034293;28;20287;-72
2022/05/10 01:10:10;;;;;;;13.03;5.23;;;8.40;86.10;;;;;;5034160;28;20214;-72
2022/05/10 01:12:50;;;;;;;11.50;5.00;;;8.40;87.00;;;;;;5034410;28;20203;-72
2022/05/10 01:15:22;;;;;;;11.83;5.20;;;8.50;87.10;;;;;;5034104;28;20555;-72
2022/05/10 01:17:58;;;;;;;13.57;5.00;;;8.50;86.00;;;;;;5035669;28;20606;-72
2022/05/10 01:20:37;;;;;;;11.47;4.63;;;8.50;85.70;;;;;;5035281;28;20192;-72
2022/05/10 01:23:27;;;;;;;10.33;4.77;;;8.50;86.50;;;;;;5033856;28;20293;-72
2022/05/10 01:26:05;;;;;;;10.20;4.67;;;8.60;87.40;;;;;;5032620;28;20287;-71
2022/05/10 01:28:43;;;;;;;12.00;5.30;;;8.50;86.10;;;;;;5034022;28;20230;-70
2022/05/10 01:31:22;;;;;;;13.10;5.03;;;8.50;86.90;;;;;;5033707;28;20223;-71
2022/05/10 01:33:58;;;;;;;10.73;4.60;;;8.40;87.00;;;;;;5033468;28;20290;-71
2022/05/10 01:36:37;;;;;;;12.03;4.97;;;8.40;87.00;;;;;;5033700;28;20200;-70
2022/05/10 01:39:25;;;;;;;11.77;5.20;;;8.30;86.90;;;;;;5034648;28;20294;-71
2022/05/10 01:42:04;;;;;;;10.47;4.80;;;8.30;87.40;;;;;;5033158;28;20248;-71
2022/05/10 01:44:48;;;;;;;10.67;5.13;;;8.30;87.50;;;;;;5033607;28;20310;-71
2022/05/10 01:47:37;;;;;;;10.57;5.00;;;8.20;88.10;;;;;;5034829;28;20265;-71
2022/05/10 01:50:18;;;;;;;9.57;5.03;;;8.10;87.70;;;;;;5033603;28;20198;-70
2022/05/10 01:53:06;;;;;;;8.10;4.70;;;8.00;88.30;;;;;;5034498;28;20202;-71
2022/05/10 01:55:47;;;;;;;12.80;5.30;;;7.90;88.70;;;;;;5033087;28;20653;-70
2022/05/10 01:58:15;;;;;;;10.23;4.87;;;7.80;89.30;;;;;;5033481;28;20226;-71
2022/05/10 02:00:57;;;;;;;9.43;5.43;;;7.80;89.50;;;;;;5033198;28;20210;-70
2022/05/10 02:03:28;;;;;;;9.10;4.87;;;7.70;90.10;;;;;;5032838;28;20302;-70
2022/05/10 02:06:05;;;;;;;11.90;5.13;;;7.60;90.40;;;;;;5033212;28;20203;-71
2022/05/10 02:08:42;;;;;;;11.20;5.20;;;7.60;90.90;;;;;;5032712;28;20210;-71
2022/05/10 02:11:13;;;;;;;11.27;5.03;;;7.50;91.20;;;;;;5033017;28;20819;-70
2022/05/10 02:13:58;;;;;;;9.47;4.27;;;7.40;91.40;;;;;;5032868;28;20289;-70
2022/05/10 02:16:41;;;;;;;11.37;5.13;;;7.40;91.30;;;;;;5032735;28;20213;-70
2022/05/10 02:19:20;;;;;;;8.70;4.80;;;7.40;91.50;;;;;;5032972;28;20265;-70
2022/05/10 02:21:54;;;;;;;8.80;4.47;;;7.40;91.20;;;;;;5033025;28;20286;-70
2022/05/10 02:24:52;;;;;;;9.47;4.97;;;7.40;91.20;;;;;;5032718;28;20203;-70
2022/05/10 02:27:23;;;;;;;9.97;4.50;;;7.40;91.40;;;;;;5032468;28;20203;-70
2022/05/10 02:30:11;;;;;;;7.73;4.63;;;7.30;91.60;;;;;;5032730;28;20226;-71
2022/05/10 02:33:08;;;;;;;9.10;4.60;;;7.30;92.30;;;;;;5032629;28;20229;-71
2022/05/10 02:35:48;;;;;;;9.47;4.23;;;7.20;93.00;;;;;;5032175;28;20286;-71
2022/05/10 02:38:20;;;;;;;9.43;4.70;;;7.20;93.20;;;;;;5033632;28;20286;-72
2022/05/10 02:40:47;;;;;;;12.93;5.17;;;7.20;93.40;;;;;;5032392;28;20230;-71
2022/05/10 02:43:19;;;;;;;11.83;5.13;;;7.20;93.60;;;;;;5032728;28;20221;-72
2022/05/10 02:45:46;;;;;;;12.23;4.90;;;7.20;93.90;;;;;;5032392;28;20750;-71
2022/05/10 02:48:23;;;;;;;10.83;5.00;;;7.10;94.20;;;;;;5032015;28;20294;-71
2022/05/10 02:50:50;;;;;;;11.70;4.80;;;7.10;94.60;;;;;;5033589;28;20222;-71
2022/05/10 02:53:18;;;;;;;10.60;5.40;;;7.00;95.20;;;;;;5032789;28;20302;-71
2022/05/10 02:55:45;;;;;;;9.17;4.47;;;6.90;95.30;;;;;;5032108;28;20657;-70
2022/05/10 02:58:35;;;;;;;9.60;4.87;;;6.90;96.00;;;;;;5032078;28;20628;-71
2022/05/10 03:01:23;;;;;;;10.27;4.87;;;6.80;96.30;;;;;;5031931;28;20210;-70
2022/05/10 03:03:51;;;;;;;8.97;5.20;;;6.80;97.10;;;;;;5031720;28;20317;-71
2022/05/10 03:06:21;;;;;;;9.63;4.37;;;6.70;97.10;;;;;;5032026;28;20232;-70
2022/05/10 03:08:49;;;;;;;8.97;5.07;;;6.70;97.30;;;;;;5032239;28;20290;-70
2022/05/10 03:11:17;;;;;;;11.67;4.70;;;6.80;97.60;;;;;;5031662;28;20316;-71
2022/05/10 03:13:45;;;;;;;9.00;4.67;;;6.70;98.40;;;;;;5031539;28;20210;-71
2022/05/10 03:16:19;;;;;;;11.03;4.57;;;6.70;99.10;;;;;;5031544;28;20245;-72
2022/05/10 03:18:46;;;;;;;8.37;4.73;;;6.70;98.90;;;;;;5032021;28;20204;-72
2022/05/10 03:21:13;;;;;;;9.80;4.63;;;6.80;99.80;;;;;;5031619;28;20282;-71
2022/05/10 03:23:40;;;;;;;14.60;4.87;;;6.80;99.90;;;;;;5032803;28;20245;-71
2022/05/10 03:26:10;;;;;;;9.60;4.73;;;6.80;99.90;;;;;;5031469;28;20539;-72
2022/05/10 03:28:38;;;;;;;10.37;4.47;;;6.80;99.90;;;;;;5031452;28;20292;-71
2022/05/10 03:31:07;;;;;;;13.33;5.07;;;6.80;99.90;;;;;;5031524;28;20225;-71
2022/05/10 03:33:34;;;;;;;8.77;4.80;;;6.80;99.90;;;;;;5031385;28;20294;-71
2022/05/10 03:36:00;;;;;;;11.30;5.03;;;6.80;99.90;;;;;;5031633;28;20194;-72
2022/05/10 03:38:29;;;;;;;12.23;4.80;;;6.80;99.90;;;;;;5031465;28;20211;-72
2022/05/10 03:40:56;;;;;;;8.63;4.67;;;6.80;99.90;;;;;;5031220;28;20281;-71
2022/05/10 03:43:23;;;;;;;8.87;4.60;;;6.90;99.90;;;;;;5015062;28;20337;-71
2022/05/10 03:45:50;;;;;;;7.73;4.60;;;6.90;99.90;;;;;;5031357;28;20540;-73
2022/05/10 03:48:17;;;;;;;7.40;4.50;;;7.00;99.90;;;;;;5031071;28;20282;-71
2022/05/10 03:50:44;;;;;;;11.30;4.80;;;7.00;99.90;;;;;;5031222;28;20303;-71
2022/05/10 03:53:10;;;;;;;9.03;4.60;;;7.00;99.90;;;;;;5031300;28;20202;-71
2022/05/10 03:55:37;;;;;;;9.73;4.90;;;7.00;99.90;;;;;;5030494;28;20203;-71
2022/05/10 03:58:05;;;;;;;11.37;4.83;;;7.10;99.90;;;;;;5031671;28;20210;-71
2022/05/10 04:00:32;;;;;;;9.03;4.50;;;7.10;99.90;;;;;;5030989;28;20230;-71
2022/05/10 04:02:59;;;;;;;9.33;5.00;;;7.10;99.90;;;;;;5031097;28;20754;-71
2022/05/10 04:05:28;;;;;;;9.23;4.63;;;7.20;99.90;;;;;;5030909;28;20659;-71
2022/05/10 04:07:54;;;;;;;8.83;5.23;;;7.20;99.90;;;;;;5032263;28;20190;-71
2022/05/10 04:10:22;;;;;;;8.90;4.63;;;7.30;99.90;;;;;;5031355;28;20217;-72
2022/05/10 04:12:49;;;;;;;10.97;4.70;;;7.30;99.90;;;;;;5032205;28;20218;-71
2022/05/10 04:15:18;;;;;;;9.07;4.33;;;7.30;99.90;;;;;;5030986;28;20302;-71
2022/05/10 04:17:45;;;;;;;8.93;4.80;;;7.40;99.90;;;;;;5030866;28;20206;-71
2022/05/10 04:20:14;;;;;;;9.83;4.70;;;7.50;99.90;;;;;;5031356;28;20198;-72
2022/05/10 04:22:41;;;;;;;9.63;4.80;;;7.60;99.90;;;;;;5031015;28;20235;-72
2022/05/10 04:25:14;;;;;;;12.77;5.00;;;7.60;99.90;;;;;;5032474;28;20208;-72
2022/05/10 04:27:41;;;;;;;7.23;4.40;;;7.70;99.90;;;;;;5030974;28;20210;-72
2022/05/10 04:30:09;;;;;;;8.33;4.47;;;7.80;99.90;;;;;;5030887;28;20199;-72
2022/05/10 04:32:38;;;;;;;8.83;4.50;;;7.90;99.90;;;;;;5032107;28;20315;-72
2022/05/10 04:35:06;;;;;;;9.67;4.73;;;7.90;99.90;;;;;;5030791;28;20188;-72
2022/05/10 04:37:34;;;;;;;10.23;5.13;;;7.90;99.90;;;;;;5030873;28;20203;-72
2022/05/10 04:42:47;;;;;;;11.67;4.60;;;8.00;99.90;;;;;;5032206;28;20565;-71
2022/05/10 04:45:14;;;;;;;10.73;4.73;;;8.10;99.60;;;;;;5031259;28;20302;-71
2022/05/10 04:47:41;;;;;;;9.00;4.87;;;8.10;98.30;;;;;;5030549;28;20207;-72
2022/05/10 04:50:09;;;;;;;7.13;4.40;;;8.10;98.10;;;;;;5030786;28;20203;-71
2022/05/10 04:52:37;;;;;;;11.03;5.07;;;8.20;97.70;;;;;;5030603;28;20341;-71
2022/05/10 04:55:09;;;;;;;10.80;4.57;;;8.30;97.50;;;;;;5030440;28;20355;-72
2022/05/10 04:57:37;;;;;;;10.50;4.80;;;8.30;97.70;;;;;;5031031;28;20559;-71
2022/05/10 05:00:07;;;;;;;12.87;4.50;;;8.40;97.90;;;;;;5030870;28;20219;-71
2022/05/10 05:02:34;;;;;;;8.67;4.60;;;8.50;97.80;;;;;;5034008;28;20249;-71
2022/05/10 05:05:02;;;;;;;8.93;4.40;;;8.60;97.40;;;;;;5034019;28;20204;-72
2022/05/10 05:07:30;;;;;;;7.83;3.97;;;8.80;97.60;;;;;;5034241;28;20204;-73
2022/05/10 05:09:56;;;;;;;8.50;4.17;;;8.90;96.80;;;;;;5033969;28;20207;-71
2022/05/10 05:12:24;;;;;;;16.63;5.50;;;9.00;95.70;;;;;;5033860;28;20322;-72
2022/05/10 05:14:50;;;;;;;11.87;4.10;;;9.10;95.20;;;;;;5035289;28;20192;-72
2022/05/10 05:17:18;;;;;;;7.73;3.87;;;9.10;95.50;;;;;;5033477;28;20261;-72
2022/05/10 05:19:45;;;;;;;8.80;4.13;;;9.20;95.80;;;;;;5033895;28;20290;-73
2022/05/10 05:22:13;;;;;;;9.70;4.50;;;9.30;95.60;;;;;;5035229;28;20244;-71
2022/05/10 05:24:39;;;;;;;8.40;4.00;;;9.30;95.00;;;;;;5033721;28;20294;-71
2022/05/10 05:27:06;;;;;;;12.60;4.63;;;9.40;95.40;;;;;;5033496;28;20286;-70
2022/05/10 05:29:33;;;;;;;12.53;5.20;;;9.40;94.60;;;;;;5033822;28;20234;-72
2022/05/10 05:32:25;;;;;;;9.53;3.90;;;9.50;94.20;;;;;;5033388;28;20226;-71
2022/05/10 05:34:52;;;;;;;13.77;3.97;;;9.60;94.40;;;;;;5033482;28;20290;-71
2022/05/10 05:37:34;;;;;;;7.97;3.63;;;9.80;93.50;;;;;;5033450;28;20725;-73
2022/05/10 05:40:10;;;;;;;5.73;3.20;;;9.80;93.30;;;;;;5033654;28;20223;-71
2022/05/10 05:42:45;;;;;;;10.57;3.40;;;9.90;93.50;;;;;;5033296;28;20578;-71
2022/05/10 05:45:13;;;;;;;5.57;3.30;;;10.10;93.00;;;;;;5033643;28;20210;-72
2022/05/10 05:47:41;;;;;;;9.40;3.60;;;10.10;92.30;;;;;;5033222;28;20291;-72
2022/05/10 05:50:10;;;;;;;8.23;3.47;;;10.20;92.30;;;;;;5033278;28;20572;-72
2022/05/10 05:52:37;;;;;;;11.33;3.70;;;10.30;92.70;;;;;;5033135;28;20262;-72
2022/05/10 05:55:05;;;;;;;9.20;3.30;;;10.50;92.50;;;;;;5032927;28;20233;-71
2022/05/10 05:57:33;;;;;;;7.00;3.40;;;10.60;92.10;;;;;;5032932;28;20199;-71
2022/05/10 06:00:00;;;;;;;14.37;4.10;;;10.80;92.20;;;;;;5033067;28;20192;-70
2022/05/10 06:02:28;;;;;;;12.30;3.60;;;11.00;92.80;;;;;;5033079;28;20314;-70
2022/05/10 06:04:54;;;;;;;15.70;3.97;;;11.20;91.90;;;;;;5033023;28;20199;-70
2022/05/10 06:07:21;;;;;;;8.87;3.33;;;11.30;91.00;;;;;;5033244;28;20230;-70
2022/05/10 06:09:49;;;;;;;6.10;2.77;;;11.40;90.60;;;;;;5032737;28;20196;-71
2022/05/10 06:12:18;;;;;;;6.77;2.73;;;11.50;86.30;;;;;;5033500;28;20746;-70
2022/05/10 06:14:45;;;;;;;12.20;3.23;;;11.70;86.00;;;;;;5032811;28;20230;-71
2022/05/10 06:17:14;;;;;;;4.43;2.53;;;11.80;84.20;;;;;;5032669;28;20728;-70
2022/05/10 06:19:42;;;;;;;6.90;2.60;;;11.90;82.20;;;;;;5032830;28;20199;-70
2022/05/10 06:22:10;;;;;;;5.33;2.37;;;12.00;81.80;;;;;;5032700;28;20286;-70
2022/05/10 06:24:38;;;;;;;6.40;2.70;;;12.00;81.60;;;;;;5032623;28;20203;-71
2022/05/10 06:27:14;;;;;;;6.00;2.80;;;12.10;83.30;;;;;;5033631;28;20226;-71
2022/05/10 06:29:41;;;;;;;4.90;2.50;;;12.20;82.90;;;;;;5032502;28;20198;-71
2022/05/10 06:32:08;;;;;;;7.67;2.77;;;12.30;84.00;;;;;;5032366;28;20258;-71
2022/05/10 06:34:38;;;;;;;4.40;2.50;;;12.50;83.00;;;;;;5033517;28;20198;-71
2022/05/10 06:38:16;;;;;;;5.57;2.43;;;12.70;79.60;;;;;;5031027;28;20295;-70
2022/05/10 06:39:52;;;;;;;5.33;2.37;;;12.70;79.40;;;;;;5032127;28;20199;-70
2022/05/10 06:42:25;;;;;;;6.93;2.60;;;12.80;77.00;;;;;;5032027;28;20303;-71
2022/05/10 06:44:52;;;;;;;4.20;2.50;;;12.90;76.50;;;;;;5032358;28;20203;-70
2022/05/10 06:47:18;;;;;;;4.63;2.20;;;13.00;73.30;;;;;;5015478;28;20203;-69
2022/05/10 06:49:45;;;;;;;3.73;2.10;;;13.00;73.60;;;;;;5033582;28;20191;-70
2022/05/10 06:52:16;;;;;;;6.00;2.40;;;13.10;73.20;;;;;;5031912;28;20246;-69
2022/05/10 06:54:44;;;;;;;4.00;2.10;;;13.20;72.70;;;;;;5031891;28;20192;-71
2022/05/10 06:57:11;;;;;;;6.17;2.10;;;13.30;72.90;;;;;;5032042;28;20290;-69
2022/05/10 06:59:38;;;;;;;3.97;2.03;;;13.50;71.10;;;;;;5031837;28;20706;-70
2022/05/10 07:02:05;;;;;;;4.17;2.10;;;13.50;69.30;;;;;;5031975;28;20697;-68
2022/05/10 07:04:32;;;;;;;5.47;2.27;;;13.60;67.30;;;;;;5032964;28;20261;-70
2022/05/10 07:06:59;;;;;;;3.33;2.00;;;13.70;69.00;;;;;;5031810;28;20230;-70
2022/05/10 07:09:26;;;;;;;3.37;1.90;;;13.80;68.20;;;;;;5033198;28;20222;-70
2022/05/10 07:11:58;;;;;;;3.63;1.70;;;13.90;67.60;;;;;;5031516;28;20223;-69
2022/05/10 07:14:25;;;;;;;4.93;1.87;;;13.90;67.10;;;;;;5032957;28;20287;-69
2022/05/10 07:16:52;;;;;;;5.17;2.00;;;14.00;67.20;;;;;;5031536;28;20682;-69
2022/05/10 07:19:19;;;;;;;4.93;2.10;;;14.10;64.50;;;;;;5032067;28;20598;-69
2022/05/10 07:21:48;;;;;;;3.30;1.90;;;14.20;66.20;;;;;;5031788;28;20298;-70
2022/05/10 07:24:19;;;;;;;4.97;1.83;;;14.30;65.70;;;;;;5032277;28;20234;-69
2022/05/10 07:26:46;;;;;;;5.93;2.03;;;14.50;64.80;;;;;;5032714;28;20203;-69
2022/05/10 07:29:14;;;;;;;5.27;2.20;;;14.60;63.80;;;;;;5031760;28;20298;-69
2022/05/10 07:31:42;;;;;;;7.07;2.40;;;14.60;62.40;;;;;;5027486;28;20199;-70
2022/05/10 07:34:10;;;;;;;4.13;2.50;;;14.70;63.20;;;;;;5003732;28;20291;-69
2022/05/10 07:36:37;;;;;;;6.10;2.20;;;14.80;61.80;;;;;;5011923;28;20291;-69
2022/05/10 07:39:07;;;;;;;4.13;2.30;;;14.90;60.70;;;;;;5011330;28;20204;-69
2022/05/10 07:41:34;;;;;;;5.50;2.23;;;15.00;60.10;;;;;;5011563;28;20251;-70
2022/05/10 07:44:03;;;;;;;4.03;2.60;;;15.00;60.30;;;;;;5011588;28;20789;-70
2022/05/10 07:46:30;;;;;;;5.13;2.40;;;15.10;60.70;;;;;;5011517;28;20231;-70
2022/05/10 07:48:57;;;;;;;7.40;2.70;;;15.20;59.80;;;;;;5012563;28;20207;-70
2022/05/10 07:51:24;;;;;;;4.10;2.30;;;15.10;58.20;;;;;;5011611;28;20196;-72
2022/05/10 07:53:51;;;;;;;4.33;2.80;;;15.10;59.20;;;;;;5011512;28;20642;-72
2022/05/10 07:56:18;;;;;;;5.73;2.50;;;15.20;58.10;;;;;;5011348;28;20215;-71
2022/05/10 07:58:53;;;;;;;3.37;2.30;;;15.20;56.10;;;;;;5011712;28;20203;-70
2022/05/10 08:01:20;;;;;;;5.43;2.43;;;15.20;56.00;;;;;;5022215;28;20199;-69
2022/05/10 08:03:48;;;;;;;6.07;2.30;;;15.40;58.10;;;;;;5013161;28;20220;-70
2022/05/10 08:06:16;;;;;;;4.23;2.30;;;15.50;58.10;;;;;;5032077;28;20187;-70
2022/05/10 08:08:43;;;;;;;4.93;2.10;;;15.70;57.90;;;;;;5023450;28;20246;-70
2022/05/10 08:11:10;;;;;;;4.33;2.30;;;16.10;58.10;;;;;;5027706;28;20298;-70
2022/05/10 08:13:38;;;;;;;4.20;2.13;;;17.60;57.10;;;;;;5012430;28;20315;-70
2022/05/10 08:16:07;;;;;;;4.60;2.17;;;19.00;52.20;;;;;;5011204;28;20246;-70
2022/05/10 08:18:35;;;;;;;2.83;1.60;;;19.80;48.90;;;;;;5011120;28;20646;-71
2022/05/10 08:21:03;;;;;;;3.87;1.83;;;20.90;48.10;;;;;;5011463;28;20238;-71
2022/05/10 08:23:33;;;;;;;2.97;2.07;;;21.70;45.90;;;;;;5019545;28;20678;-70
2022/05/10 08:26:00;;;;;;;3.80;2.35;;;22.10;45.70;;;;;;5013011;28;20279;-70
2022/05/10 08:28:29;;;;;;;4.45;2.40;;;22.40;45.30;;;;;;5012433;28;20235;-69
2022/05/10 08:30:57;;;;;;;3.13;2.15;;;23.00;43.30;;;;;;5012332;28;20220;-71
2022/05/10 08:33:29;;;;;;;3.30;1.73;;;23.30;41.00;;;;;;5011180;28;20251;-69
2022/05/10 08:35:57;;;;;;;3.63;1.98;;;23.40;40.10;;;;;;5014037;28;20279;-70
2022/05/10 08:38:26;;;;;;;3.33;1.98;;;23.10;39.20;;;;;;5014901;28;20207;-69
2022/05/10 08:41:08;;;;;;;4.70;2.40;;;23.30;39.30;;;;;;5014688;28;20377;-70
2022/05/10 08:43:41;;;;;;;4.45;2.20;;;23.50;41.50;;;;;;5014502;28;20242;-71
2022/05/10 08:46:11;;;;;;;3.67;2.28;;;23.80;39.80;;;;;;5014914;28;20200;-71
2022/05/10 08:48:38;;;;;;;4.05;2.40;;;23.80;39.00;;;;;;5014542;28;20204;-70
2022/05/10 08:51:07;;;;;;;5.47;2.60;;;22.70;38.80;;;;;;5016125;28;20185;-70
2022/05/10 08:53:35;;;;;;;5.45;2.50;;;22.60;40.40;;;;;;5014663;28;20311;-69
2022/05/10 08:56:26;;;;;;;7.38;2.83;;;23.20;41.60;;;;;;5014124;28;20258;-69
2022/05/10 08:59:02;;;;;;;4.60;2.40;;;23.40;40.70;;;;;;5014509;28;20224;-69
2022/05/10 09:01:52;;;;;;;3.63;1.90;;;23.80;40.70;;;;;;5014569;28;20196;-70
2022/05/10 09:04:52;;;;;;;3.20;2.17;;;24.30;39.60;;;;;;5015117;28;20275;-70
2022/05/10 09:07:51;;;;;;;4.68;2.03;;;24.10;38.70;;;;;;5014306;28;20642;-69
2022/05/10 09:10:39;;;;;;;4.13;2.00;;;24.20;38.00;;;;;;4957689;28;20240;-70
2022/05/10 09:13:10;;;;;;;3.72;2.30;;;24.40;37.10;;;;;;4974329;28;20778;-70
2022/05/10 09:15:40;;;;;;;5.32;2.33;;;24.00;36.70;;;;;;4957850;28;20237;-70
2022/05/10 09:18:23;;;;;;;3.40;2.20;;;23.20;37.40;;;;;;4973797;28;20203;-70
2022/05/10 09:20:58;;;;;;;7.78;2.45;;;23.00;39.50;;;;;;4958239;28;20225;-69
2022/05/10 09:23:46;;;;;;;7.05;2.17;;;23.20;39.20;;;;;;4974019;28;20193;-70
2022/05/10 09:26:14;;;;;;;5.95;2.15;;;23.40;38.30;;;;;;4973725;28;20717;-71
2022/05/10 09:28:47;;;;;;;7.25;1.80;;;22.80;37.10;;;;;;4961775;28;20229;-69
2022/05/10 09:34:46;;;;;;;6.45;1.85;;;22.90;38.50;;;;;;4973504;28;20301;-71
2022/05/10 09:37:20;;;;;;;7.22;2.25;;;23.20;38.60;;;;;;4957270;28;20217;-69
2022/05/10 09:39:56;;;;;;;4.30;1.90;;;23.40;39.00;;;;;;4957599;28;20279;-73
2022/05/10 09:42:25;;;;;;;3.35;2.00;;;23.80;37.40;;;;;;4957317;28;20296;-75
2022/05/10 09:45:03;;;;;;;4.47;1.85;;;24.10;42.90;;;;;;4963947;28;20197;-72
2022/05/10 09:47:31;;;;;;;5.93;1.85;;;24.20;51.00;;;;;;5006393;28;20295;-71
2022/05/10 09:50:20;;;;;;;3.05;1.90;;;23.80;46.10;;;;;;5013486;28;20204;-77
2022/05/10 09:52:47;;;;;;;4.28;2.17;;;23.60;43.50;;;;;;5029720;28;20239;-71
2022/05/10 09:55:26;;;;;;;4.53;1.92;;;22.60;45.80;;;;;;5013435;28;20290;-71
2022/05/10 09:57:55;;;;;;;3.92;2.00;;;22.60;50.40;;;;;;5029901;28;20641;-68
2022/05/10 10:00:52;;;;;;;4.55;1.92;;;22.80;48.80;;;;;;5013344;28;20204;-70
2022/05/10 10:03:41;;;;;;;3.30;1.83;;;23.30;47.60;;;;;;5031499;28;20243;-70
2022/05/10 10:06:23;;;;;;;4.07;2.00;;;23.40;43.60;;;;;;5033227;28;20218;-68
2022/05/10 10:08:56;;;;;;;2.38;1.70;;;23.70;50.80;;;;;;5032801;28;20239;-69
2022/05/10 10:11:29;;;;;;;3.70;1.95;;;23.80;46.80;;;;;;5032725;28;20199;-69
2022/05/10 10:14:06;;;;;;;3.90;1.80;;;23.70;46.60;;;;;;5032465;28;20314;-68
2022/05/10 10:16:53;;;;;;;3.65;1.98;;;23.90;42.50;;;;;;5033084;28;20227;-70
2022/05/10 10:19:36;;;;;;;5.47;2.13;;;24.10;41.60;;;;;;5024390;28;20203;-70
2022/05/10 10:22:08;;;;;;;3.42;1.90;;;24.50;44.10;;;;;;5013468;28;20555;-69
2022/05/10 10:24:47;;;;;;;8.45;1.88;;;25.00;41.80;;;;;;5014318;28;20200;-70
2022/05/10 10:27:34;;;;;;;3.25;1.60;;;24.80;40.10;;;;;;5013044;28;20192;-70
2022/05/10 10:30:41;;;;;;;4.45;1.75;;;24.40;40.30;;;;;;5013053;28;20204;-69
2022/05/10 10:33:23;;;;;;;4.22;1.98;;;24.70;41.60;;;;;;5012558;28;20622;-70
2022/05/10 10:35:55;;;;;;;4.30;1.77;;;25.20;38.20;;;;;;5017420;28;20195;-69
2022/05/10 10:38:39;;;;;;;3.55;1.65;;;25.40;38.10;;;;;;5032605;28;20293;-70
2022/05/10 10:41:10;;;;;;;3.95;2.15;;;25.60;42.00;;;;;;5033213;28;20318;-69
2022/05/10 10:43:48;;;;;;;4.57;1.90;;;25.90;39.70;;;;;;5031876;28;20220;-68
2022/05/10 10:46:31;;;;;;;3.75;1.70;;;25.90;39.80;;;;;;5033240;28;20672;-69
2022/05/10 10:49:11;;;;;;;2.47;1.60;;;26.10;36.40;;;;;;5032246;28;20679;-69
2022/05/10 10:51:38;;;;;;;5.30;1.80;;;26.10;38.20;;;;;;5025638;28;20206;-71
2022/05/10 10:54:10;;;;;;;3.40;1.80;;;26.10;38.50;;;;;;5017307;28;20228;-71
2022/05/10 10:56:56;;;;;;;4.13;1.60;;;26.50;37.50;;;;;;5012328;28;20306;-70
2022/05/10 10:59:51;;;;;;;2.78;1.88;;;26.70;35.10;;;;;;5011612;28;20206;-71
2022/05/10 11:02:23;;;;;;;2.63;1.90;;;26.30;34.10;;;;;;5011884;28;20217;-71
2022/05/10 11:05:03;;;;;;;3.13;1.67;;;26.10;35.60;;;;;;5011843;28;20250;-71
2022/05/10 11:07:48;;;;;;;2.42;1.50;;;26.20;35.70;;;;;;5012157;28;20303;-71
2022/05/10 11:10:47;;;;;;;2.25;1.40;;;26.70;34.20;;;;;;5013031;28;20200;-71
2022/05/10 11:13:25;;;;;;;3.80;1.75;;;27.00;33.60;;;;;;5012030;28;20266;-69
2022/05/10 11:16:20;;;;;;;2.75;1.85;;;26.90;35.10;;;;;;4995713;28;20355;-69
2022/05/10 11:19:14;;;;;;;3.15;1.50;;;27.30;33.70;;;;;;5011867;28;20200;-71
2022/05/10 11:21:59;;;;;;;3.53;1.60;;;27.10;33.60;;;;;;5011867;28;20296;-69
2022/05/10 11:25:02;;;;;;;2.95;1.60;;;26.60;30.70;;;;;;5012113;28;20543;-70
2022/05/10 11:27:41;;;;;;;4.55;1.70;;;26.80;33.80;;;;;;5011645;28;20261;-69
2022/05/10 11:30:17;;;;;;;4.13;1.75;;;27.00;32.40;;;;;;5013239;28;20219;-70
2022/05/10 11:33:26;;;;;;;3.53;1.63;;;27.30;31.20;;;;;;5011911;28;20199;-70
2022/05/10 11:36:16;;;;;;;4.45;1.67;;;27.10;30.80;;;;;;4961113;28;20220;-68
2022/05/10 11:39:15;;;;;;;3.05;1.40;;;27.50;31.00;;;;;;4991034;28;20204;-69
2022/05/10 11:42:15;;;;;;;2.60;1.70;;;27.80;32.00;;;;;;4966429;28;20288;-70
2022/05/10 11:44:54;;;;;;;2.75;1.67;;;27.90;31.90;;;;;;4955103;28;20260;-70
2022/05/10 11:47:32;;;;;;;1.88;1.40;;;28.20;33.80;;;;;;4955582;28;20201;-70
2022/05/10 11:50:26;;;;;;;2.50;1.40;;;28.30;31.30;;;;;;4955099;28;20197;-69
2022/05/10 11:53:03;;;;;;;3.30;1.70;;;28.80;31.70;;;;;;4955171;28;20216;-70
2022/05/10 11:55:49;;;;;;;2.95;1.63;;;28.80;30.60;;;;;;4939213;28;20300;-72
2022/05/10 11:58:16;;;;;;;2.72;1.50;;;28.80;30.20;;;;;;4971771;28;20248;-71
2022/05/10 12:00:56;;;;;;;2.85;1.50;;;28.70;31.10;;;;;;4955076;28;20210;-70
2022/05/10 12:03:43;;;;;;;3.28;1.48;;;28.80;30.00;;;;;;4954806;28;20221;-71
2022/05/10 12:06:22;;;;;;;2.50;1.60;;;28.20;28.70;;;;;;4955052;28;20205;-69
2022/05/10 12:08:56;;;;;;;1.80;1.40;;;28.10;28.70;;;;;;4955153;28;20201;-70
2022/05/10 12:11:30;;;;;;;2.08;1.30;;;28.20;29.90;;;;;;4958770;28;20193;-71
2022/05/10 12:22:45;;;;;;;4.82;1.70;;;28.80;29.30;;;;;;5015100;28;20299;-71
2022/05/10 12:25:50;;;;;;;3.60;1.55;;;29.00;29.60;;;;;;5015101;28;20204;-73
2022/05/10 12:28:40;;;;;;;2.30;1.42;;;29.40;29.40;;;;;;5016199;28;20196;-71
2022/05/10 12:31:54;;;;;;;2.05;1.40;;;28.60;28.30;;;;;;5016411;28;20243;-72
2022/05/10 12:34:40;;;;;;;3.33;1.42;;;29.20;28.60;;;;;;5020708;28;20262;-72
2022/05/10 12:37:22;;;;;;;3.40;1.50;;;29.20;28.30;;;;;;5031822;28;20241;-72
2022/05/10 12:39:54;;;;;;;2.55;1.42;;;29.60;28.70;;;;;;5034010;28;20297;-74
2022/05/10 12:42:53;;;;;;;4.25;1.30;;;29.20;27.80;;;;;;5034137;28;20199;-73
2022/05/10 12:45:24;;;;;;;3.17;1.40;;;29.40;27.50;;;;;;5034325;28;20695;-71
2022/05/10 12:48:08;;;;;;;2.33;1.50;;;29.80;28.60;;;;;;5034199;28;20653;-73
2022/05/10 12:50:58;;;;;;;4.00;1.50;;;30.00;28.10;;;;;;5033011;28;20290;-71
2022/05/10 12:53:51;;;;;;;2.42;1.60;;;30.30;28.10;;;;;;5035219;28;20250;-71
2022/05/10 12:56:25;;;;;;;3.95;1.60;;;30.30;26.40;;;;;;5034120;28;20206;-71
2022/05/10 12:58:57;;;;;;;3.05;1.50;;;30.50;26.50;;;;;;5033858;28;20289;-71
2022/05/10 13:01:27;;;;;;;3.15;1.50;;;30.50;27.20;;;;;;5033789;28;20226;-72
2022/05/10 13:04:22;;;;;;;2.22;1.50;;;30.50;28.10;;;;;;5034752;28;20211;-70
2022/05/10 13:06:55;;;;;;;2.78;1.60;;;30.50;27.40;;;;;;5016506;28;20570;-69
2022/05/10 13:09:44;;;;;;;4.32;1.40;;;30.20;27.10;;;;;;5032836;28;20230;-69
2022/05/10 13:12:19;;;;;;;1.67;1.25;;;30.00;26.70;;;;;;5016463;28;20258;-70
2022/05/10 13:14:50;;;;;;;3.75;1.35;;;28.60;26.10;;;;;;4999387;28;20221;-69
2022/05/10 13:17:21;;;;;;;3.17;1.50;;;28.90;26.80;;;;;;4983399;28;20208;-70
2022/05/10 13:19:49;;;;;;;7.95;1.48;;;29.50;26.00;;;;;;5005013;28;20710;-70
2022/05/10 13:22:21;;;;;;;3.20;1.50;;;28.50;25.40;;;;;;5011880;28;20199;-69
2022/05/10 13:24:51;;;;;;;5.07;1.80;;;28.30;26.40;;;;;;5012722;28;20200;-69
2022/05/10 13:27:28;;;;;;;3.53;1.80;;;27.30;27.70;;;;;;5012542;28;20304;-71
2022/05/10 13:30:16;;;;;;;2.38;1.65;;;27.20;26.50;;;;;;4996487;28;20206;-70
2022/05/10 13:32:45;;;;;;;2.85;1.80;;;26.90;28.60;;;;;;4916481;29;20203;-70
2022/05/10 13:35:23;;;;;;;6.82;1.92;;;27.50;29.00;;;;;;4900077;29;20246;-71
2022/05/10 13:38:03;;;;;;;4.15;1.83;;;28.20;28.20;;;;;;4916121;29;20230;-73
2022/05/10 13:40:48;;;;;;;2.67;1.80;;;28.30;27.80;;;;;;4900263;29;20283;-70